Aitkin, Minnesota
Current Conditions -  °F | °C
As of 5:34 AM on Thursday 27 Nov 2014 (Local Time) from KAIT Reporting Station
Clear Clear  
Wind Chill: -21°   Ceiling: Unl
Heat Index: -21°   Visibility: 10mi
Dew Point: -24°   Wind: 0mph
Humidity: 77%   Direction: NA
Pressure: 30.45"   Gusts: NA
Location:  46.53°N, 93.71°W
Report Text: KAIT 271134Z AUTO 00000KT 10SM CLR M21/M24 A3045 RMK AO2
Loading
Personal Weather Stations






























Interactive Weather Map New forecast layout! Learn more

10-Day Weather Forecast

Advertisements
Track Severe Weather on mobile